Time;durP1;ratioP1;P1;durP2;ratioP2;P2;SDS_P1;SDS_P2;PMS_P1;PMS_P2;Temp;Humidity;BMP_temperature;BMP_pressure;BME280_temperature;BME280_humidity;BME280_pressure;Samples;Min_cycle;Max_cycle;Signal;HPM_P1;HPM_P2
2022/07/23 00:00:35;;;;;;;3.42;3.12;;;;;;;33.35;26.09;99039.91;1881480;75;28662;-63
2022/07/23 00:03:24;;;;;;;3.10;2.90;;;;;;;33.29;26.09;99038.41;1884335;75;28239;-63
2022/07/23 00:06:12;;;;;;;3.20;2.90;;;;;;;33.23;26.18;99036.90;1882942;75;28154;-62
2022/07/23 00:09:01;;;;;;;3.22;3.00;;;;;;;33.23;26.25;99034.67;1879158;75;28133;-62
2022/07/23 00:11:49;;;;;;;3.15;2.95;;;;;;;33.21;26.28;99034.97;1880724;75;28182;-63
2022/07/23 00:14:37;;;;;;;3.08;2.87;;;;;;;33.16;26.38;99044.04;1867162;75;28192;-63
2022/07/23 00:17:25;;;;;;;3.35;3.05;;;;;;;33.17;26.39;99054.02;1867608;76;28168;-63
2022/07/23 00:20:15;;;;;;;3.20;2.90;;;;;;;33.15;26.46;99060.47;1866124;76;28148;-62
2022/07/23 00:23:03;;;;;;;3.20;3.00;;;;;;;33.10;26.53;99066.16;1861838;76;28174;-62
2022/07/23 00:25:52;;;;;;;3.20;3.00;;;;;;;33.05;26.57;99058.75;1867034;76;28122;-59
2022/07/23 00:28:41;;;;;;;3.40;2.90;;;;;;;32.92;26.62;99067.12;1854919;76;28164;-62
2022/07/23 00:31:29;;;;;;;2.98;2.77;;;;;;;32.86;26.65;99064.20;1865541;76;28168;-62
2022/07/23 00:34:18;;;;;;;3.00;2.80;;;;;;;32.84;26.80;99078.41;1870220;76;28207;-60
2022/07/23 00:37:06;;;;;;;3.05;2.75;;;;;;;32.80;26.91;99077.40;1867604;76;32043;-62
2022/07/23 00:39:54;;;;;;;3.20;2.90;;;;;;;32.75;26.96;99067.21;1866161;76;28128;-62
2022/07/23 00:42:43;;;;;;;3.17;2.87;;;;;;;32.74;27.15;99084.22;1865764;76;28162;-61
2022/07/23 00:45:32;;;;;;;2.70;2.50;;;;;;;32.72;27.24;99095.64;1865740;76;28121;-62
2022/07/23 00:48:21;;;;;;;2.43;2.23;;;;;;;32.74;27.58;99107.28;1865452;76;28194;-61
2022/07/23 00:51:09;;;;;;;2.85;2.65;;;;;;;32.74;27.58;99107.28;1861617;74;28441;-61
2022/07/23 00:53:58;;;;;;;2.90;2.70;;;;;;;32.71;27.54;99114.05;1862752;76;28152;-62
2022/07/23 00:56:48;;;;;;;2.42;2.33;;;;;;;32.67;27.76;99105.48;1868607;76;28141;-61
2022/07/23 00:59:36;;;;;;;2.50;2.40;;;;;;;32.61;27.95;99101.17;1864089;76;32068;-62
2022/07/23 01:02:26;;;;;;;2.58;2.40;;;;;;;32.65;28.11;99100.80;1868556;76;28116;-62
2022/07/23 01:05:15;;;;;;;5.75;2.40;;;;;;;32.62;28.52;99102.01;1862503;76;28354;-63
2022/07/23 01:08:05;;;;;;;2.73;2.53;;;;;;;32.53;28.84;99113.05;1844450;76;28752;-62
2022/07/23 01:10:54;;;;;;;2.77;2.25;;;;;;;32.43;29.27;99113.77;1852019;76;28261;-62
2022/07/23 01:13:46;;;;;;;2.70;2.50;;;;;;;32.38;29.55;99117.48;1846425;76;28175;-62
2022/07/23 01:16:34;;;;;;;2.77;2.50;;;;;;;32.33;29.86;99112.58;1855465;76;28049;-60
2022/07/23 01:19:22;;;;;;;2.77;2.45;;;;;;;32.21;30.28;99113.09;1865699;76;28093;-60
2022/07/23 01:22:12;;;;;;;3.98;2.60;;;;;;;32.22;30.42;99101.41;1835555;76;30992;-59
2022/07/23 01:25:00;;;;;;;2.30;2.20;;;;;;;32.33;30.35;99103.67;1865726;76;28148;-61
2022/07/23 01:27:51;;;;;;;2.67;2.50;;;;;;;32.54;30.09;99095.21;1865695;76;28081;-61
2022/07/23 01:30:40;;;;;;;3.10;2.45;;;;;;;32.68;29.96;99107.14;1854180;76;28159;-61
2022/07/23 01:33:30;;;;;;;2.40;2.30;;;;;;;32.81;29.82;99118.02;1847311;76;28081;-59
2022/07/23 01:36:19;;;;;;;3.08;2.62;;;;;;;32.87;29.70;99119.53;1866009;76;28127;-62
2022/07/23 01:39:08;;;;;;;2.70;2.50;;;;;;;32.91;29.67;99123.33;1862780;76;28215;-61
2022/07/23 01:41:57;;;;;;;2.90;2.50;;;;;;;32.99;29.57;99112.87;1865940;76;28061;-61
2022/07/23 01:44:46;;;;;;;2.80;2.60;;;;;;;33.02;29.48;99101.71;1846457;76;28135;-62
2022/07/23 01:47:36;;;;;;;2.62;2.50;;;;;;;33.07;29.40;99105.77;1865711;76;28216;-62
2022/07/23 01:50:24;;;;;;;3.22;2.52;;;;;;;33.12;29.34;99100.89;1866259;75;28111;-62
2022/07/23 01:53:15;;;;;;;2.77;2.52;;;;;;;33.16;29.33;99095.54;1873598;75;28225;-61
2022/07/23 01:56:04;;;;;;;2.83;2.57;;;;;;;33.19;29.32;99092.10;1862901;76;28104;-62
2022/07/23 01:58:53;;;;;;;3.02;2.65;;;;;;;33.22;29.31;99080.34;1865695;76;28137;-61
2022/07/23 02:01:41;;;;;;;2.80;2.60;;;;;;;33.24;29.30;99078.89;1865899;76;28117;-61
2022/07/23 02:04:29;;;;;;;3.20;2.60;;;;;;;33.24;29.37;99093.37;1865902;76;28175;-61
2022/07/23 02:07:18;;;;;;;2.62;2.42;;;;;;;33.28;29.34;99099.98;1865728;76;28107;-61
2022/07/23 02:10:08;;;;;;;2.80;2.60;;;;;;;33.25;29.40;99098.65;1865905;76;28128;-61
2022/07/23 02:12:58;;;;;;;3.00;2.80;;;;;;;33.28;29.38;99097.20;1865888;76;28053;-61
2022/07/23 02:15:47;;;;;;;2.83;2.52;;;;;;;33.26;29.39;99096.10;1862653;75;28165;-61
2022/07/23 02:18:36;;;;;;;2.70;2.50;;;;;;;33.29;29.36;99101.05;1878084;76;28169;-61
2022/07/23 02:21:24;;;;;;;2.90;2.60;;;;;;;33.32;29.34;99110.73;1877689;76;28207;-61
2022/07/23 02:24:14;;;;;;;2.60;2.40;;;;;;;33.30;29.40;99108.84;1877942;76;28152;-61
2022/07/23 02:27:03;;;;;;;3.10;2.80;;;;;;;33.29;29.41;99098.27;1860314;76;28176;-61
2022/07/23 02:29:53;;;;;;;2.60;2.50;;;;;;;33.29;29.45;99086.30;1878060;76;28108;-61
2022/07/23 02:32:41;;;;;;;2.50;2.40;;;;;;;33.29;29.53;99089.91;1878125;76;28128;-61
2022/07/23 02:35:31;;;;;;;2.47;2.37;;;;;;;33.25;29.65;99101.44;1877912;76;28133;-60
2022/07/23 02:38:22;;;;;;;2.60;2.50;;;;;;;33.16;30.01;99103.33;1878171;76;28113;-61
2022/07/23 02:41:11;;;;;;;3.05;2.80;;;;;;;33.19;30.15;99137.47;1877904;76;28199;-61
2022/07/23 02:44:00;;;;;;;3.52;2.45;;;;;;;33.17;30.43;99128.62;1878052;76;28131;-61
2022/07/23 02:46:49;;;;;;;2.77;2.67;;;;;;;33.15;30.71;99131.45;1878146;76;28106;-61
2022/07/23 02:49:38;;;;;;;2.87;2.67;;;;;;;33.12;31.08;99141.25;1868327;76;28121;-61
2022/07/23 02:52:27;;;;;;;2.70;2.50;;;;;;;33.13;31.12;99122.04;1871225;74;28127;-61
2022/07/23 02:55:15;;;;;;;3.05;2.75;;;;;;;33.06;31.58;99147.25;1870174;74;28299;-61
2022/07/23 02:58:04;;;;;;;2.70;2.50;;;;;;;33.04;31.58;99143.41;1877946;76;28696;-61
2022/07/23 03:00:53;;;;;;;2.70;2.50;;;;;;;33.03;31.62;99139.52;1871438;76;28172;-61
2022/07/23 03:03:42;;;;;;;2.53;2.43;;;;;;;33.01;31.65;99138.98;1877920;76;28669;-60
2022/07/23 03:06:30;;;;;;;2.62;2.50;;;;;;;32.93;31.68;99154.45;1877993;76;28277;-60
2022/07/23 03:09:19;;;;;;;2.58;2.37;;;;;;;32.90;31.65;99153.70;1878103;76;28218;-61
2022/07/23 03:12:08;;;;;;;2.40;2.30;;;;;;;32.86;31.46;99168.55;1878037;76;28257;-61
2022/07/23 03:14:57;;;;;;;3.00;2.80;;;;;;;32.88;31.34;99191.32;1877894;76;28289;-61
2022/07/23 03:17:45;;;;;;;2.40;2.30;;;;;;;32.85;31.33;99184.41;1863264;76;28137;-62
2022/07/23 03:20:34;;;;;;;3.77;2.65;;;;;;;32.86;31.33;99175.51;1844657;76;28172;-61
2022/07/23 03:23:23;;;;;;;2.67;2.50;;;;;;;32.87;31.36;99159.88;1858814;76;28227;-62
2022/07/23 03:26:11;;;;;;;2.67;2.47;;;;;;;32.92;31.31;99163.12;1868549;76;28117;-61
2022/07/23 03:29:01;;;;;;;2.90;2.70;;;;;;;32.99;31.15;99167.70;1856502;77;28125;-61
2022/07/23 03:31:50;;;;;;;2.55;2.40;;;;;;;33.03;31.05;99163.18;1852825;76;28224;-61
2022/07/23 03:34:39;;;;;;;2.90;2.60;;;;;;;33.08;30.99;99151.94;1853558;77;28248;-61
2022/07/23 03:37:28;;;;;;;2.70;2.50;;;;;;;33.11;30.94;99150.77;1856676;77;30167;-61
2022/07/23 03:40:18;;;;;;;2.80;2.60;;;;;;;33.13;30.85;99162.96;1856712;77;28125;-61
2022/07/23 03:43:07;;;;;;;2.90;2.70;;;;;;;33.13;30.87;99160.18;1830792;77;28146;-61
2022/07/23 03:45:55;;;;;;;2.80;2.60;;;;;;;33.12;30.95;99157.95;1856635;77;28184;-60
2022/07/23 03:48:44;;;;;;;2.70;2.50;;;;;;;33.15;31.01;99155.95;1855890;77;28114;-60
2022/07/23 03:51:32;;;;;;;3.00;2.80;;;;;;;33.15;31.14;99155.13;1852706;76;28121;-60
2022/07/23 03:54:21;;;;;;;2.87;2.67;;;;;;;33.14;31.21;99145.14;1870328;74;28196;-61
2022/07/23 03:57:09;;;;;;;2.67;2.55;;;;;;;33.15;31.30;99145.38;1871631;74;28237;-61
2022/07/23 03:59:58;;;;;;;2.95;2.72;;;;;;;33.12;31.40;99141.81;1787720;76;28381;-61
2022/07/23 04:02:47;;;;;;;2.77;2.58;;;;;;;33.12;31.49;99144.04;1774628;79;28305;-61
2022/07/23 04:05:36;;;;;;;2.90;2.80;;;;;;;33.12;31.47;99131.52;1788718;79;28318;-61
2022/07/23 04:08:26;;;;;;;2.80;2.50;;;;;;;33.14;31.52;99143.75;1806030;79;28375;-61
2022/07/23 04:11:15;;;;;;;3.20;2.90;;;;;;;33.17;31.47;99168.98;1807348;79;28399;-61
2022/07/23 04:14:04;;;;;;;2.90;2.70;;;;;;;33.18;31.45;99198.48;1780399;80;28442;-61
2022/07/23 04:16:52;;;;;;;2.90;2.70;;;;;;;33.22;31.39;99207.02;1802752;79;28280;-61
2022/07/23 04:19:43;;;;;;;2.98;2.58;;;;;;;33.22;31.39;99216.77;1865435;76;28195;-61
2022/07/23 04:22:33;;;;;;;3.75;2.50;;;;;;;33.22;31.40;99213.98;1857023;77;31116;-61
2022/07/23 04:25:21;;;;;;;3.02;2.72;;;;;;;33.22;31.40;99222.33;1849872;77;28114;-61
2022/07/23 04:28:11;;;;;;;2.77;2.58;;;;;;;33.19;31.37;99241.88;1864849;76;28117;-60
2022/07/23 04:31:00;;;;;;;2.90;2.70;;;;;;;33.20;31.42;99248.27;1868421;76;28177;-61
2022/07/23 04:33:48;;;;;;;2.80;2.60;;;;;;;33.18;31.47;99254.72;1856898;77;28117;-60
2022/07/23 04:36:37;;;;;;;3.08;2.85;;;;;;;33.04;31.81;99266.44;1814144;78;28267;-61
2022/07/23 04:39:25;;;;;;;3.00;2.80;;;;;;;32.96;32.01;99283.24;1862498;76;28175;-61
2022/07/23 04:42:14;;;;;;;2.87;2.67;;;;;;;32.90;32.13;99249.70;1868666;76;28168;-61
2022/07/23 04:45:03;;;;;;;3.35;3.05;;;;;;;32.87;32.21;99266.18;1856723;77;28159;-61
2022/07/23 04:47:52;;;;;;;2.92;2.67;;;;;;;32.83;32.31;99281.29;1836313;77;28146;-61
2022/07/23 04:50:40;;;;;;;3.10;2.80;;;;;;;32.78;32.47;99300.02;1856571;77;28228;-61
2022/07/23 04:53:30;;;;;;;3.02;2.87;;;;;;;32.73;32.62;99286.48;1877319;74;28191;-61
2022/07/23 04:56:20;;;;;;;3.10;2.80;;;;;;;32.69;32.71;99286.01;1874744;74;28137;-61
2022/07/23 04:59:09;;;;;;;3.10;2.90;;;;;;;32.71;32.75;99300.44;1846208;76;28112;-60
2022/07/23 05:01:58;;;;;;;3.30;3.10;;;;;;;32.64;32.97;99321.70;1868536;76;28392;-60
2022/07/23 05:04:47;;;;;;;3.30;3.00;;;;;;;32.66;32.94;99307.48;1868559;76;28270;-61
2022/07/23 05:07:36;;;;;;;3.20;2.98;;;;;;;32.63;33.04;99300.56;1848883;77;28168;-61
2022/07/23 05:10:24;;;;;;;3.27;2.98;;;;;;;32.56;33.05;99327.95;1856857;77;28205;-61
2022/07/23 05:13:15;;;;;;;3.50;3.00;;;;;;;32.56;33.11;99314.60;1847662;77;28116;-61
2022/07/23 05:16:05;;;;;;;3.08;2.87;;;;;;;32.58;33.17;99308.20;1856835;77;28571;-61
2022/07/23 05:18:53;;;;;;;3.25;3.00;;;;;;;32.58;33.20;99289.53;1852124;74;28282;-61
2022/07/23 05:21:42;;;;;;;3.30;3.00;;;;;;;32.61;33.26;99272.80;1901691;74;28051;-60
2022/07/23 05:24:30;;;;;;;2.95;2.75;;;;;;;32.61;33.28;99258.33;1871355;76;31134;-61
2022/07/23 05:27:19;;;;;;;3.33;3.10;;;;;;;32.64;33.31;99252.16;1840338;77;28200;-61
2022/07/23 05:30:10;;;;;;;3.72;3.12;;;;;;;32.63;33.41;99257.45;1853331;76;28175;-61
2022/07/23 05:32:59;;;;;;;3.47;3.17;;;;;;;32.66;33.52;99240.16;1870083;76;28186;-61
2022/07/23 05:35:47;;;;;;;3.00;2.80;;;;;;;32.70;33.51;99240.35;1872613;76;28213;-61
2022/07/23 05:38:44;;;;;;;3.00;2.80;;;;;;;32.72;33.53;99246.46;1874805;76;28277;-61
2022/07/23 05:41:33;;;;;;;3.17;2.98;;;;;;;32.72;33.77;99227.78;1853722;76;28552;-61
2022/07/23 05:44:22;;;;;;;2.92;2.72;;;;;;;32.75;33.88;99172.92;1873182;76;28110;-61
2022/07/23 05:47:11;;;;;;;3.20;2.90;;;;;;;32.77;33.99;99175.39;1872971;76;28106;-61
2022/07/23 05:49:59;;;;;;;3.20;3.00;;;;;;;32.77;34.64;99243.55;1873396;76;28185;-61
2022/07/23 05:52:49;;;;;;;3.10;2.90;;;;;;;32.82;34.76;99264.88;1873774;74;28221;-61
2022/07/23 05:55:54;;;;;;;3.47;3.17;;;;;;;32.83;34.91;99252.07;1817007;77;28377;-61
2022/07/23 05:58:43;;;;;;;3.25;3.05;;;;;;;32.78;34.91;99235.47;1868981;76;28153;-61
2022/07/23 06:01:32;;;;;;;3.35;3.08;;;;;;;32.72;34.98;99223.61;1873038;76;28103;-60
2022/07/23 06:04:30;;;;;;;3.02;2.83;;;;;;;32.77;35.22;99231.63;1873459;76;28118;-61
2022/07/23 06:07:23;;;;;;;3.30;3.10;;;;;;;32.60;35.80;99233.61;1844455;76;28479;-60
2022/07/23 06:10:13;;;;;;;3.20;3.00;;;;;;;32.48;36.54;99224.91;1871158;76;28049;-59
2022/07/23 06:13:02;;;;;;;3.20;3.00;;;;;;;32.26;37.04;99220.58;1873250;76;28266;-58
2022/07/23 06:15:51;;;;;;;3.65;3.35;;;;;;;31.85;37.90;99230.16;1873649;76;28202;-56
2022/07/23 06:18:40;;;;;;;4.08;3.17;;;;;;;31.56;38.62;99231.70;1853439;76;28127;-57
2022/07/23 06:21:29;;;;;;;3.50;3.20;;;;;;;31.40;39.51;99233.02;1877613;75;28236;-58
2022/07/23 06:24:19;;;;;;;3.70;3.40;;;;;;;31.13;39.96;99249.50;1878054;76;28194;-57
2022/07/23 06:27:07;;;;;;;4.17;3.20;;;;;;;30.81;40.40;99243.17;1861503;76;28175;-57
2022/07/23 06:29:56;;;;;;;3.72;3.40;;;;;;;30.69;40.69;99233.88;1877186;76;28172;-58
2022/07/23 06:32:45;;;;;;;4.72;3.62;;;;;;;30.33;41.43;99235.39;1878132;76;28183;-54
2022/07/23 06:35:36;;;;;;;3.70;3.40;;;;;;;30.21;41.74;99241.01;1878037;76;28192;-55
2022/07/23 06:38:26;;;;;;;3.87;3.50;;;;;;;30.14;42.19;99236.36;1877815;76;28178;-57
2022/07/23 06:41:15;;;;;;;3.90;3.60;;;;;;;29.95;42.48;99232.92;1867329;76;28156;-57
2022/07/23 06:44:05;;;;;;;3.90;3.70;;;;;;;29.83;42.80;99230.25;1877874;76;28150;-57
2022/07/23 06:46:55;;;;;;;3.80;3.50;;;;;;;29.73;42.75;99232.53;1877875;76;28206;-53
2022/07/23 06:49:43;;;;;;;3.80;3.50;;;;;;;29.54;43.13;99234.31;1868859;76;28140;-54
2022/07/23 06:52:32;;;;;;;3.40;3.20;;;;;;;29.41;43.49;99230.78;1870051;76;28393;-58
2022/07/23 06:55:20;;;;;;;3.45;3.20;;;;;;;29.50;43.45;99220.76;1870193;74;28156;-56
2022/07/23 06:58:09;;;;;;;3.80;3.50;;;;;;;29.48;43.39;99225.76;1863224;76;28310;-59
2022/07/23 07:00:59;;;;;;;4.30;3.30;;;;;;;29.57;43.14;99242.61;1863651;76;28194;-59
2022/07/23 07:03:47;;;;;;;3.58;3.37;;;;;;;29.60;42.90;99238.69;1877967;76;28121;-56
2022/07/23 07:06:35;;;;;;;3.50;3.20;;;;;;;29.60;42.67;99240.08;1855556;76;28259;-57
2022/07/23 07:09:24;;;;;;;3.58;3.30;;;;;;;29.52;42.79;99252.32;1877982;76;28172;-56
2022/07/23 07:12:13;;;;;;;3.80;3.50;;;;;;;29.56;42.59;99236.78;1877010;76;28180;-53
2022/07/23 07:15:01;;;;;;;3.95;3.40;;;;;;;29.54;42.55;99241.23;1877450;76;28200;-57
2022/07/23 07:17:49;;;;;;;4.92;3.80;;;;;;;29.55;42.55;99235.95;1877618;76;28554;-53
2022/07/23 07:20:38;;;;;;;3.83;3.52;;;;;;;29.52;42.41;99242.63;1876389;76;28102;-55
2022/07/23 07:23:26;;;;;;;3.62;3.37;;;;;;;29.61;42.18;99243.67;1848496;77;28290;-57
2022/07/23 07:26:14;;;;;;;3.80;3.50;;;;;;;29.64;41.96;99239.77;1845244;77;28169;-57
2022/07/23 07:29:03;;;;;;;3.58;3.27;;;;;;;29.67;41.77;99250.27;1856318;77;28245;-53
2022/07/23 07:31:51;;;;;;;3.58;3.27;;;;;;;29.78;41.59;99254.65;1848484;77;28126;-56
2022/07/23 07:34:40;;;;;;;4.40;3.30;;;;;;;29.96;41.19;99230.44;1856204;77;28166;-55
2022/07/23 07:37:28;;;;;;;3.45;3.15;;;;;;;30.15;40.80;99235.26;1859514;76;28211;-53
2022/07/23 07:40:17;;;;;;;3.45;3.15;;;;;;;30.29;40.48;99242.61;1868214;76;28134;-52
2022/07/23 07:43:05;;;;;;;3.30;3.10;;;;;;;30.42;40.11;99246.66;1848483;76;32132;-55
2022/07/23 07:45:54;;;;;;;3.10;2.90;;;;;;;30.55;39.82;99258.47;1846953;77;28224;-54
2022/07/23 07:48:42;;;;;;;3.50;3.30;;;;;;;30.65;39.59;99254.17;1868301;76;28115;-50
2022/07/23 07:51:32;;;;;;;3.30;3.00;;;;;;;30.75;39.30;99257.69;1835037;77;28128;-52
2022/07/23 07:54:21;;;;;;;3.42;3.20;;;;;;;30.84;39.08;99257.02;1856415;75;28142;-55
2022/07/23 07:57:10;;;;;;;3.40;3.10;;;;;;;30.90;38.91;99255.89;1872228;74;28261;-53
2022/07/23 07:59:58;;;;;;;3.50;3.00;;;;;;;30.95;38.77;99254.45;1883283;74;28122;-55
2022/07/23 08:02:49;;;;;;;3.30;3.10;;;;;;;31.04;38.54;99262.37;1851242;76;32087;-56
2022/07/23 08:05:38;;;;;;;3.20;3.00;;;;;;;31.11;38.39;99260.07;1870320;75;28163;-54
2022/07/23 08:08:26;;;;;;;3.02;2.92;;;;;;;31.16;38.23;99254.43;1856775;77;28169;-53
2022/07/23 08:11:15;;;;;;;3.10;2.90;;;;;;;31.20;38.03;99254.92;1843835;77;28145;-55
2022/07/23 08:14:03;;;;;;;2.92;2.72;;;;;;;31.25;37.96;99252.67;1849753;76;28127;-50
2022/07/23 08:16:52;;;;;;;3.00;2.80;;;;;;;31.30;37.82;99253.97;1851908;77;30063;-54
2022/07/23 08:19:41;;;;;;;3.00;2.80;;;;;;;31.37;37.69;99259.42;1854854;77;28145;-56
2022/07/23 08:22:44;;;;;;;3.27;3.08;;;;;;;31.41;37.48;99261.06;1842758;77;28355;-56
2022/07/23 08:25:35;;;;;;;2.95;2.72;;;;;;;31.47;37.37;99259.05;1847310;77;28200;-55
2022/07/23 08:28:24;;;;;;;2.90;2.70;;;;;;;31.49;37.34;99252.63;1848172;76;28141;-55
2022/07/23 08:31:15;;;;;;;2.80;2.60;;;;;;;31.54;37.24;99253.95;1851448;77;28199;-54
2022/07/23 08:34:03;;;;;;;2.90;2.70;;;;;;;31.56;37.13;99262.25;1857437;76;28372;-56
2022/07/23 08:36:51;;;;;;;2.67;2.58;;;;;;;31.61;37.03;99254.41;1860908;76;28192;-53
2022/07/23 08:39:39;;;;;;;2.95;2.80;;;;;;;31.63;36.93;99252.14;1867496;76;28234;-54
2022/07/23 08:42:28;;;;;;;2.70;2.50;;;;;;;31.67;36.84;99256.80;1868576;76;28113;-55
2022/07/23 08:45:20;;;;;;;2.87;2.67;;;;;;;31.70;36.75;99260.38;1856798;77;28235;-56
2022/07/23 08:48:11;;;;;;;2.70;2.60;;;;;;;31.72;36.63;99257.28;1840494;77;28131;-56
2022/07/23 08:51:02;;;;;;;2.90;2.70;;;;;;;31.73;36.64;99256.17;1856624;77;28224;-56
2022/07/23 08:53:52;;;;;;;2.60;2.50;;;;;;;31.79;36.47;99254.95;1852637;76;28172;-55
2022/07/23 08:56:42;;;;;;;2.80;2.60;;;;;;;31.79;36.47;99260.51;1867754;74;28148;-56
2022/07/23 08:59:32;;;;;;;2.65;2.55;;;;;;;31.82;36.38;99252.97;1851675;75;28247;-54
2022/07/23 09:02:20;;;;;;;2.62;2.52;;;;;;;31.85;36.27;99253.20;1851988;77;28329;-56
2022/07/23 09:05:11;;;;;;;2.85;2.65;;;;;;;31.91;36.23;99241.43;1856900;77;28106;-55
2022/07/23 09:08:14;;;;;;;2.65;2.50;;;;;;;31.92;36.11;99247.27;1856952;77;30129;-56
2022/07/23 09:11:04;;;;;;;2.70;2.60;;;;;;;31.93;36.08;99250.28;1843341;77;28154;-55
2022/07/23 09:13:58;;;;;;;2.77;2.58;;;;;;;31.92;36.06;99245.87;1850229;77;28250;-56
2022/07/23 09:16:44;;;;;;;2.80;2.70;;;;;;;31.92;35.99;99248.66;1850574;76;28151;-57
2022/07/23 09:19:33;;;;;;;2.70;2.50;;;;;;;31.94;35.99;99245.00;1868752;76;28114;-57
2022/07/23 09:22:27;;;;;;;2.67;2.50;;;;;;;31.98;35.91;99255.23;1868683;76;28220;-58
2022/07/23 09:25:19;;;;;;;2.47;2.37;;;;;;;31.97;35.90;99250.80;1857065;76;28316;-56
2022/07/23 09:28:07;;;;;;;2.40;2.30;;;;;;;31.98;35.82;99251.07;1849326;77;28315;-58
2022/07/23 09:30:55;;;;;;;2.58;2.40;;;;;;;32.02;35.79;99245.16;1846615;77;28168;-56
2022/07/23 09:33:44;;;;;;;2.83;2.70;;;;;;;32.05;35.72;99245.13;1851299;76;28663;-57
2022/07/23 09:36:32;;;;;;;2.77;2.67;;;;;;;32.07;35.67;99244.25;1836656;77;28149;-56
2022/07/23 09:39:33;;;;;;;2.70;2.50;;;;;;;32.07;35.60;99241.47;1868680;76;28222;-57
2022/07/23 09:42:28;;;;;;;2.70;2.60;;;;;;;32.07;35.65;99243.69;1865173;76;28159;-57
2022/07/23 09:45:16;;;;;;;2.70;2.60;;;;;;;32.12;35.54;99237.77;1856444;76;28216;-54
2022/07/23 09:48:16;;;;;;;2.80;2.60;;;;;;;32.11;35.57;99239.75;1832017;77;28192;-56
2022/07/23 09:51:05;;;;;;;2.77;2.58;;;;;;;32.16;35.45;99245.20;1827920;77;28172;-56
2022/07/23 09:53:54;;;;;;;2.53;2.43;;;;;;;32.16;35.46;99248.57;1849794;77;28312;-53
2022/07/23 09:56:44;;;;;;;2.50;2.40;;;;;;;32.18;35.40;99251.31;1863582;74;28270;-54
2022/07/23 09:59:38;;;;;;;2.45;2.35;;;;;;;32.19;35.40;99246.55;1888784;74;28123;-55
2022/07/23 10:02:29;;;;;;;4.00;2.60;;;;;;;32.19;35.38;99236.27;1861634;76;28117;-55
2022/07/23 10:05:29;;;;;;;2.70;2.55;;;;;;;32.21;35.33;99232.61;1815774;76;28339;-57
2022/07/23 10:08:26;;;;;;;2.50;2.40;;;;;;;32.22;35.32;99233.44;1853704;76;28121;-55
2022/07/23 10:11:34;;;;;;;2.42;2.33;;;;;;;32.22;35.31;99232.05;1868612;76;28184;-54
2022/07/23 10:14:25;;;;;;;2.58;2.37;;;;;;;32.21;35.30;99224.86;1856584;77;28296;-56
2022/07/23 10:17:16;;;;;;;2.55;2.42;;;;;;;32.23;35.27;99221.20;1868627;76;28121;-53
2022/07/23 10:20:05;;;;;;;2.62;2.50;;;;;;;32.28;35.22;99230.85;1856784;77;36315;-59
2022/07/23 10:23:00;;;;;;;2.55;2.45;;;;;;;32.27;35.21;99227.24;1845707;77;28237;-58
2022/07/23 10:26:13;;;;;;;2.70;2.50;;;;;;;32.31;35.14;99222.71;1870847;75;28211;-54
2022/07/23 10:29:05;;;;;;;2.80;2.60;;;;;;;32.32;35.12;99222.98;1861646;75;28348;-56
2022/07/23 10:32:05;;;;;;;2.40;2.30;;;;;;;32.24;35.13;99214.50;1884240;75;28272;-58
2022/07/23 10:35:21;;;;;;;2.20;2.10;;;;;;;32.30;35.16;99236.34;1810366;78;28318;-58
2022/07/23 10:38:21;;;;;;;2.58;2.37;;;;;;;32.30;35.16;99236.34;1804068;78;28369;-54
2022/07/23 10:41:09;;;;;;;2.70;2.50;;;;;;;32.28;35.26;99225.29;1820776;78;28425;-55
2022/07/23 10:44:26;;;;;;;2.40;2.30;;;;;;;32.31;35.29;99215.76;1825977;78;28430;-58
2022/07/23 10:50:39;;;;;;;2.22;2.12;;;;;;;32.32;35.33;99218.81;1805949;78;28321;-60
2022/07/23 10:53:23;;;;;;;2.60;2.40;;;;;;;32.31;35.34;99220.48;1815318;78;28401;-57
2022/07/23 10:56:14;;;;;;;2.33;2.22;;;;;;;32.35;35.42;99227.91;1815135;78;28256;-58
2022/07/23 10:59:06;;;;;;;2.40;2.30;;;;;;;32.39;35.39;99224.80;1806833;78;28563;-60
2022/07/23 11:01:56;;;;;;;3.83;2.37;;;;;;;32.39;35.55;99228.14;1823792;78;28363;-61
2022/07/23 11:04:54;;;;;;;2.45;2.35;;;;;;;32.37;35.67;99225.64;1828590;78;28293;-59
2022/07/23 11:08:07;;;;;;;2.77;2.50;;;;;;;32.40;35.67;99226.43;1808589;78;28426;-59
2022/07/23 11:11:06;;;;;;;2.67;2.40;;;;;;;32.41;35.82;99216.14;1884266;75;28187;-59
2022/07/23 11:13:54;;;;;;;2.50;2.30;;;;;;;32.37;35.93;99218.70;1810395;78;28284;-60
2022/07/23 11:16:49;;;;;;;2.70;2.60;;;;;;;32.38;36.05;99222.30;1817242;78;28293;-59
2022/07/23 11:19:57;;;;;;;2.63;2.50;;;;;;;32.40;36.25;99214.48;1817239;78;28760;-60
2022/07/23 11:22:54;;;;;;;2.80;2.60;;;;;;;32.41;36.20;99218.92;1817448;78;28329;-59
2022/07/23 11:25:44;;;;;;;3.25;2.58;;;;;;;32.41;36.21;99222.53;1820167;78;28340;-61
2022/07/23 11:28:32;;;;;;;4.07;2.63;;;;;;;32.41;36.32;99210.02;1856386;77;28177;-60
2022/07/23 11:31:22;;;;;;;2.87;2.67;;;;;;;32.44;36.30;99206.60;1867470;76;28193;-60
2022/07/23 11:34:34;;;;;;;2.70;2.60;;;;;;;32.46;36.31;99208.54;1868247;76;28265;-60
2022/07/23 11:37:31;;;;;;;4.13;2.70;;;;;;;32.49;36.33;99214.02;1813114;76;28318;-59
2022/07/23 11:40:19;;;;;;;2.90;2.70;;;;;;;32.47;36.33;99222.69;1858978;76;28190;-57
2022/07/23 11:43:09;;;;;;;2.80;2.60;;;;;;;32.46;36.35;99202.98;1854357;76;28260;-59
2022/07/23 11:46:00;;;;;;;2.70;2.50;;;;;;;32.49;36.33;99216.80;1868437;76;28125;-58
2022/07/23 11:48:52;;;;;;;2.90;2.70;;;;;;;32.50;36.31;99190.12;1856737;77;28179;-59
2022/07/23 11:51:40;;;;;;;5.42;2.85;;;;;;;32.51;36.31;99190.97;1868748;76;28161;-59
2022/07/23 11:54:29;;;;;;;3.02;2.72;;;;;;;32.51;36.26;99185.41;1856683;77;28139;-57
2022/07/23 11:57:18;;;;;;;2.75;2.58;;;;;;;32.51;36.31;99189.58;1836764;75;28331;-60
2022/07/23 12:00:13;;;;;;;3.10;2.90;;;;;;;32.56;36.23;99181.94;1858060;74;28307;-59
2022/07/23 12:03:03;;;;;;;2.58;2.47;;;;;;;32.56;36.19;99180.55;1847297;76;28250;-59
2022/07/23 12:05:55;;;;;;;3.20;2.90;;;;;;;32.56;36.15;99179.16;1868582;76;28113;-59
2022/07/23 12:08:43;;;;;;;3.30;3.00;;;;;;;32.56;36.14;99180.55;1856749;77;28196;-60
2022/07/23 12:11:31;;;;;;;2.80;2.60;;;;;;;32.55;36.11;99189.20;1856681;77;28199;-62
2022/07/23 12:14:21;;;;;;;2.92;2.72;;;;;;;32.57;36.05;99191.11;1856597;77;28191;-54
2022/07/23 12:17:11;;;;;;;2.80;2.60;;;;;;;32.64;36.04;99183.18;1856701;77;28199;-56
2022/07/23 12:20:03;;;;;;;2.67;2.58;;;;;;;32.68;35.96;99182.25;1845010;77;28138;-59
2022/07/23 12:22:54;;;;;;;3.10;2.90;;;;;;;32.69;35.91;99168.61;1837766;77;28113;-59
2022/07/23 12:25:45;;;;;;;3.05;2.85;;;;;;;32.70;35.72;99160.51;1829128;76;28285;-59
2022/07/23 12:28:37;;;;;;;3.08;2.90;;;;;;;32.69;35.72;99158.88;1876823;76;28283;-60
2022/07/23 12:31:28;;;;;;;3.05;2.85;;;;;;;32.68;35.68;99150.27;1859061;76;28324;-59
2022/07/23 12:34:17;;;;;;;3.02;2.83;;;;;;;32.72;35.64;99167.17;1862092;76;28207;-59
2022/07/23 12:37:05;;;;;;;3.10;2.90;;;;;;;32.78;35.54;99174.27;1860202;76;28124;-59
2022/07/23 12:39:54;;;;;;;2.90;2.70;;;;;;;32.78;35.41;99168.70;1877383;76;28354;-56
2022/07/23 12:42:43;;;;;;;2.80;2.60;;;;;;;32.80;35.39;99143.34;1861783;76;28192;-57
2022/07/23 12:45:47;;;;;;;3.05;2.85;;;;;;;32.83;35.27;99146.91;1873294;76;28102;-58
2022/07/23 12:48:43;;;;;;;2.80;2.60;;;;;;;32.83;35.18;99149.69;1823116;77;28282;-58
2022/07/23 12:51:32;;;;;;;2.83;2.70;;;;;;;32.80;35.13;99162.81;1840224;77;28201;-57
2022/07/23 12:54:24;;;;;;;3.05;2.85;;;;;;;32.83;35.10;99156.08;1811132;78;28336;-57
2022/07/23 12:57:12;;;;;;;2.98;2.70;;;;;;;32.87;35.01;99156.27;1813609;78;28217;-59
2022/07/23 13:00:11;;;;;;;3.03;2.90;;;;;;;32.86;34.99;99147.09;1813265;78;28450;-55
2022/07/23 13:03:00;;;;;;;2.90;2.70;;;;;;;32.89;34.86;99135.34;1817382;78;28682;-55
2022/07/23 13:05:48;;;;;;;3.10;2.90;;;;;;;32.92;34.78;99140.86;1818820;78;28275;-54
2022/07/23 13:08:40;;;;;;;3.20;2.85;;;;;;;32.92;34.72;99125.55;1822729;78;28336;-56
2022/07/23 13:11:28;;;;;;;2.90;2.70;;;;;;;32.95;34.66;99108.24;1821770;78;28382;-55
2022/07/23 13:14:19;;;;;;;2.65;2.55;;;;;;;32.95;34.57;99135.52;1883926;75;28141;-57
2022/07/23 13:17:07;;;;;;;2.95;2.75;;;;;;;32.95;34.54;99128.55;1804371;78;28237;-58
2022/07/23 13:19:55;;;;;;;2.95;2.75;;;;;;;32.99;34.52;99099.52;1789227;78;29040;-58
2022/07/23 13:22:44;;;;;;;2.90;2.70;;;;;;;32.98;34.44;99096.49;1841033;77;28204;-56
2022/07/23 13:25:32;;;;;;;2.67;2.58;;;;;;;32.97;34.47;99105.41;1818749;78;28277;-58